sensor_id;sensor_type;location;lat;lon;timestamp;P1;durP1;ratioP1;P2;durP2;ratioP2
57828;SDS011;43657;52.698;6.314;2022-10-17T00:01:11;8.30;;;5.60;;
57828;SDS011;43657;52.698;6.314;2022-10-17T00:03:37;7.30;;;4.85;;
57828;SDS011;43657;52.698;6.314;2022-10-17T00:06:08;6.65;;;4.78;;
57828;SDS011;43657;52.698;6.314;2022-10-17T00:08:36;8.20;;;5.53;;
57828;SDS011;43657;52.698;6.314;2022-10-17T00:11:08;7.47;;;5.90;;
57828;SDS011;43657;52.698;6.314;2022-10-17T00:13:37;8.95;;;5.95;;
57828;SDS011;43657;52.698;6.314;2022-10-17T00:16:03;8.25;;;6.07;;
57828;SDS011;43657;52.698;6.314;2022-10-17T00:18:30;6.30;;;5.70;;
57828;SDS011;43657;52.698;6.314;2022-10-17T00:20:56;7.47;;;5.85;;
57828;SDS011;43657;52.698;6.314;2022-10-17T00:23:21;8.25;;;6.70;;
57828;SDS011;43657;52.698;6.314;2022-10-17T00:25:56;7.00;;;6.30;;
57828;SDS011;43657;52.698;6.314;2022-10-17T00:28:22;9.48;;;6.75;;
57828;SDS011;43657;52.698;6.314;2022-10-17T00:30:53;7.75;;;6.78;;
57828;SDS011;43657;52.698;6.314;2022-10-17T00:33:23;8.27;;;6.90;;
57828;SDS011;43657;52.698;6.314;2022-10-17T00:35:49;10.23;;;6.68;;
57828;SDS011;43657;52.698;6.314;2022-10-17T00:38:14;8.27;;;7.40;;
57828;SDS011;43657;52.698;6.314;2022-10-17T00:40:40;10.90;;;7.45;;
57828;SDS011;43657;52.698;6.314;2022-10-17T00:43:11;8.07;;;7.28;;
57828;SDS011;43657;52.698;6.314;2022-10-17T00:45:41;7.88;;;6.82;;
57828;SDS011;43657;52.698;6.314;2022-10-17T00:48:07;9.10;;;6.88;;
57828;SDS011;43657;52.698;6.314;2022-10-17T00:50:35;10.23;;;7.18;;
57828;SDS011;43657;52.698;6.314;2022-10-17T00:53:03;7.70;;;6.72;;
57828;SDS011;43657;52.698;6.314;2022-10-17T00:55:32;8.48;;;7.10;;
57828;SDS011;43657;52.698;6.314;2022-10-17T00:58:02;9.85;;;7.65;;
57828;SDS011;43657;52.698;6.314;2022-10-17T01:00:29;10.23;;;8.13;;
57828;SDS011;43657;52.698;6.314;2022-10-17T01:02:55;8.50;;;7.72;;
57828;SDS011;43657;52.698;6.314;2022-10-17T01:05:20;8.52;;;7.45;;
57828;SDS011;43657;52.698;6.314;2022-10-17T01:07:47;9.40;;;8.40;;
57828;SDS011;43657;52.698;6.314;2022-10-17T01:10:14;10.93;;;8.68;;
57828;SDS011;43657;52.698;6.314;2022-10-17T01:18:48;9.77;;;8.88;;
57828;SDS011;43657;52.698;6.314;2022-10-17T01:20:53;9.93;;;9.02;;
57828;SDS011;43657;52.698;6.314;2022-10-17T01:23:26;11.63;;;9.52;;
57828;SDS011;43657;52.698;6.314;2022-10-17T01:31:53;10.02;;;9.00;;
57828;SDS011;43657;52.698;6.314;2022-10-17T01:37:55;10.93;;;9.80;;
57828;SDS011;43657;52.698;6.314;2022-10-17T01:40:38;11.52;;;10.27;;
57828;SDS011;43657;52.698;6.314;2022-10-17T01:43:23;11.95;;;10.80;;
57828;SDS011;43657;52.698;6.314;2022-10-17T01:46:09;11.90;;;10.80;;
57828;SDS011;43657;52.698;6.314;2022-10-17T01:48:44;11.52;;;10.27;;
57828;SDS011;43657;52.698;6.314;2022-10-17T01:53:37;13.18;;;11.95;;
57828;SDS011;43657;52.698;6.314;2022-10-17T01:56:07;12.18;;;11.00;;
57828;SDS011;43657;52.698;6.314;2022-10-17T01:58:39;13.00;;;11.70;;
57828;SDS011;43657;52.698;6.314;2022-10-17T02:01:14;13.02;;;11.48;;
57828;SDS011;43657;52.698;6.314;2022-10-17T02:03:45;13.15;;;12.05;;
57828;SDS011;43657;52.698;6.314;2022-10-17T02:06:15;13.52;;;12.40;;
57828;SDS011;43657;52.698;6.314;2022-10-17T02:08:50;12.70;;;11.50;;
57828;SDS011;43657;52.698;6.314;2022-10-17T02:11:20;14.07;;;12.27;;
57828;SDS011;43657;52.698;6.314;2022-10-17T02:21:45;14.00;;;12.70;;
57828;SDS011;43657;52.698;6.314;2022-10-17T02:29:56;14.90;;;13.48;;
57828;SDS011;43657;52.698;6.314;2022-10-17T02:32:34;15.48;;;13.90;;
57828;SDS011;43657;52.698;6.314;2022-10-17T02:35:17;14.90;;;13.57;;
57828;SDS011;43657;52.698;6.314;2022-10-17T02:37:45;17.23;;;14.18;;
57828;SDS011;43657;52.698;6.314;2022-10-17T02:40:17;15.68;;;14.18;;
57828;SDS011;43657;52.698;6.314;2022-10-17T02:42:46;15.38;;;13.77;;
57828;SDS011;43657;52.698;6.314;2022-10-17T02:45:18;18.27;;;15.70;;
57828;SDS011;43657;52.698;6.314;2022-10-17T02:50:20;16.25;;;14.55;;
57828;SDS011;43657;52.698;6.314;2022-10-17T02:52:54;15.87;;;14.37;;
57828;SDS011;43657;52.698;6.314;2022-10-17T02:55:32;17.15;;;15.18;;
57828;SDS011;43657;52.698;6.314;2022-10-17T02:58:05;16.95;;;15.25;;
57828;SDS011;43657;52.698;6.314;2022-10-17T03:00:43;16.70;;;15.07;;
57828;SDS011;43657;52.698;6.314;2022-10-17T03:03:20;23.02;;;16.27;;
57828;SDS011;43657;52.698;6.314;2022-10-17T03:05:53;19.27;;;17.23;;
57828;SDS011;43657;52.698;6.314;2022-10-17T03:08:20;19.45;;;17.45;;
57828;SDS011;43657;52.698;6.314;2022-10-17T03:10:51;18.73;;;16.85;;
57828;SDS011;43657;52.698;6.314;2022-10-17T03:13:23;18.73;;;16.83;;
57828;SDS011;43657;52.698;6.314;2022-10-17T03:15:52;18.85;;;16.98;;
57828;SDS011;43657;52.698;6.314;2022-10-17T03:18:20;18.98;;;16.98;;
57828;SDS011;43657;52.698;6.314;2022-10-17T03:20:48;19.48;;;17.58;;
57828;SDS011;43657;52.698;6.314;2022-10-17T03:23:17;20.67;;;17.60;;
57828;SDS011;43657;52.698;6.314;2022-10-17T03:25:45;20.10;;;18.00;;
57828;SDS011;43657;52.698;6.314;2022-10-17T03:28:11;18.58;;;16.75;;
57828;SDS011;43657;52.698;6.314;2022-10-17T03:30:37;19.27;;;17.38;;
57828;SDS011;43657;52.698;6.314;2022-10-17T03:33:08;20.15;;;18.05;;
57828;SDS011;43657;52.698;6.314;2022-10-17T03:35:34;20.27;;;18.15;;
57828;SDS011;43657;52.698;6.314;2022-10-17T03:38:05;20.38;;;18.27;;
57828;SDS011;43657;52.698;6.314;2022-10-17T03:40:31;19.80;;;17.10;;
57828;SDS011;43657;52.698;6.314;2022-10-17T03:42:57;19.30;;;17.30;;
57828;SDS011;43657;52.698;6.314;2022-10-17T03:45:23;20.48;;;18.20;;
57828;SDS011;43657;52.698;6.314;2022-10-17T03:47:51;23.05;;;18.75;;
57828;SDS011;43657;52.698;6.314;2022-10-17T03:50:16;21.13;;;18.10;;
57828;SDS011;43657;52.698;6.314;2022-10-17T03:52:45;22.70;;;19.35;;
57828;SDS011;43657;52.698;6.314;2022-10-17T03:55:12;21.38;;;19.17;;
57828;SDS011;43657;52.698;6.314;2022-10-17T03:57:38;21.70;;;19.27;;
57828;SDS011;43657;52.698;6.314;2022-10-17T04:00:04;23.77;;;19.92;;
57828;SDS011;43657;52.698;6.314;2022-10-17T04:02:33;25.00;;;20.02;;
57828;SDS011;43657;52.698;6.314;2022-10-17T04:05:02;21.67;;;19.38;;
57828;SDS011;43657;52.698;6.314;2022-10-17T04:07:28;24.40;;;19.98;;
57828;SDS011;43657;52.698;6.314;2022-10-17T04:09:56;24.17;;;20.67;;
57828;SDS011;43657;52.698;6.314;2022-10-17T04:12:21;23.58;;;21.08;;
57828;SDS011;43657;52.698;6.314;2022-10-17T04:14:47;22.95;;;20.52;;
57828;SDS011;43657;52.698;6.314;2022-10-17T04:17:16;24.92;;;21.02;;
57828;SDS011;43657;52.698;6.314;2022-10-17T04:19:41;23.42;;;20.85;;
57828;SDS011;43657;52.698;6.314;2022-10-17T04:22:10;23.48;;;20.95;;
57828;SDS011;43657;52.698;6.314;2022-10-17T04:24:35;26.48;;;21.60;;
57828;SDS011;43657;52.698;6.314;2022-10-17T04:27:01;25.10;;;21.13;;
57828;SDS011;43657;52.698;6.314;2022-10-17T04:29:27;24.23;;;21.23;;
57828;SDS011;43657;52.698;6.314;2022-10-17T04:31:56;27.10;;;22.27;;
57828;SDS011;43657;52.698;6.314;2022-10-17T04:34:22;24.45;;;21.15;;
57828;SDS011;43657;52.698;6.314;2022-10-17T04:36:47;23.83;;;21.25;;
57828;SDS011;43657;52.698;6.314;2022-10-17T04:39:19;24.70;;;21.10;;
57828;SDS011;43657;52.698;6.314;2022-10-17T04:41:53;22.10;;;19.25;;
57828;SDS011;43657;52.698;6.314;2022-10-17T04:44:20;27.00;;;20.40;;
57828;SDS011;43657;52.698;6.314;2022-10-17T04:46:49;24.17;;;20.38;;
57828;SDS011;43657;52.698;6.314;2022-10-17T04:49:15;25.33;;;20.25;;
57828;SDS011;43657;52.698;6.314;2022-10-17T04:51:41;22.33;;;20.02;;
57828;SDS011;43657;52.698;6.314;2022-10-17T04:54:09;24.67;;;20.30;;
57828;SDS011;43657;52.698;6.314;2022-10-17T04:56:38;23.58;;;19.92;;
57828;SDS011;43657;52.698;6.314;2022-10-17T04:59:04;24.38;;;20.95;;
57828;SDS011;43657;52.698;6.314;2022-10-17T05:01:32;24.00;;;20.30;;
57828;SDS011;43657;52.698;6.314;2022-10-17T05:03:58;23.02;;;19.33;;
57828;SDS011;43657;52.698;6.314;2022-10-17T05:06:24;24.23;;;19.38;;
57828;SDS011;43657;52.698;6.314;2022-10-17T05:09:02;22.63;;;19.42;;
57828;SDS011;43657;52.698;6.314;2022-10-17T05:11:28;25.90;;;20.02;;
57828;SDS011;43657;52.698;6.314;2022-10-17T05:13:55;22.58;;;19.33;;
57828;SDS011;43657;52.698;6.314;2022-10-17T05:16:22;27.95;;;19.52;;
57828;SDS011;43657;52.698;6.314;2022-10-17T05:18:49;22.65;;;18.48;;
57828;SDS011;43657;52.698;6.314;2022-10-17T05:21:16;21.55;;;19.25;;
57828;SDS011;43657;52.698;6.314;2022-10-17T05:23:44;21.55;;;18.48;;
57828;SDS011;43657;52.698;6.314;2022-10-17T05:26:10;23.40;;;18.98;;
57828;SDS011;43657;52.698;6.314;2022-10-17T05:28:36;21.20;;;18.83;;
57828;SDS011;43657;52.698;6.314;2022-10-17T05:31:03;24.35;;;20.05;;
57828;SDS011;43657;52.698;6.314;2022-10-17T05:33:30;21.55;;;18.40;;
57828;SDS011;43657;52.698;6.314;2022-10-17T05:35:56;21.50;;;18.75;;
57828;SDS011;43657;52.698;6.314;2022-10-17T05:38:22;22.45;;;19.00;;
57828;SDS011;43657;52.698;6.314;2022-10-17T05:40:51;25.17;;;19.30;;
57828;SDS011;43657;52.698;6.314;2022-10-17T05:43:25;20.98;;;18.77;;
57828;SDS011;43657;52.698;6.314;2022-10-17T05:45:51;21.50;;;19.05;;
57828;SDS011;43657;52.698;6.314;2022-10-17T05:48:17;20.73;;;18.13;;
57828;SDS011;43657;52.698;6.314;2022-10-17T05:50:48;21.27;;;17.95;;
57828;SDS011;43657;52.698;6.314;2022-10-17T05:53:15;21.33;;;18.58;;
57828;SDS011;43657;52.698;6.314;2022-10-17T05:55:44;21.23;;;18.20;;
57828;SDS011;43657;52.698;6.314;2022-10-17T05:58:10;23.38;;;17.40;;
57828;SDS011;43657;52.698;6.314;2022-10-17T06:00:35;22.73;;;18.20;;
57828;SDS011;43657;52.698;6.314;2022-10-17T06:03:10;22.92;;;18.15;;
57828;SDS011;43657;52.698;6.314;2022-10-17T06:05:36;21.27;;;18.30;;
57828;SDS011;43657;52.698;6.314;2022-10-17T06:08:13;23.17;;;17.45;;
57828;SDS011;43657;52.698;6.314;2022-10-17T06:10:50;20.13;;;16.98;;
57828;SDS011;43657;52.698;6.314;2022-10-17T06:13:21;20.92;;;17.27;;
57828;SDS011;43657;52.698;6.314;2022-10-17T06:15:47;21.50;;;17.65;;
57828;SDS011;43657;52.698;6.314;2022-10-17T06:18:12;19.35;;;17.27;;
57828;SDS011;43657;52.698;6.314;2022-10-17T06:23:21;22.52;;;17.15;;
57828;SDS011;43657;52.698;6.314;2022-10-17T06:26:09;23.92;;;17.98;;
57828;SDS011;43657;52.698;6.314;2022-10-17T06:28:38;19.92;;;17.60;;
57828;SDS011;43657;52.698;6.314;2022-10-17T06:31:20;19.95;;;17.58;;
57828;SDS011;43657;52.698;6.314;2022-10-17T06:34:19;20.90;;;16.35;;
57828;SDS011;43657;52.698;6.314;2022-10-17T06:36:48;21.38;;;16.98;;
57828;SDS011;43657;52.698;6.314;2022-10-17T06:39:28;18.63;;;16.40;;
57828;SDS011;43657;52.698;6.314;2022-10-17T06:42:23;20.50;;;16.98;;
57828;SDS011;43657;52.698;6.314;2022-10-17T06:45:05;18.67;;;15.98;;
57828;SDS011;43657;52.698;6.314;2022-10-17T06:47:44;19.15;;;15.88;;
57828;SDS011;43657;52.698;6.314;2022-10-17T06:50:20;17.88;;;15.23;;
57828;SDS011;43657;52.698;6.314;2022-10-17T06:52:54;16.00;;;14.30;;
57828;SDS011;43657;52.698;6.314;2022-10-17T06:55:27;17.77;;;15.10;;
57828;SDS011;43657;52.698;6.314;2022-10-17T06:58:04;17.02;;;15.20;;
57828;SDS011;43657;52.698;6.314;2022-10-17T07:00:55;17.60;;;15.13;;
57828;SDS011;43657;52.698;6.314;2022-10-17T07:03:29;19.65;;;15.40;;
57828;SDS011;43657;52.698;6.314;2022-10-17T07:05:55;19.23;;;15.15;;
57828;SDS011;43657;52.698;6.314;2022-10-17T07:08:34;15.25;;;13.73;;
57828;SDS011;43657;52.698;6.314;2022-10-17T07:11:20;15.32;;;13.57;;
57828;SDS011;43657;52.698;6.314;2022-10-17T07:13:54;15.73;;;12.93;;
57828;SDS011;43657;52.698;6.314;2022-10-17T07:16:32;14.75;;;13.30;;
57828;SDS011;43657;52.698;6.314;2022-10-17T07:19:09;14.88;;;13.30;;
57828;SDS011;43657;52.698;6.314;2022-10-17T07:21:43;15.38;;;13.60;;
57828;SDS011;43657;52.698;6.314;2022-10-17T07:24:18;15.70;;;13.77;;
57828;SDS011;43657;52.698;6.314;2022-10-17T07:29:28;14.75;;;13.25;;
57828;SDS011;43657;52.698;6.314;2022-10-17T07:31:54;14.15;;;12.30;;
57828;SDS011;43657;52.698;6.314;2022-10-17T07:34:42;13.70;;;12.30;;
57828;SDS011;43657;52.698;6.314;2022-10-17T07:37:17;13.52;;;12.13;;
57828;SDS011;43657;52.698;6.314;2022-10-17T07:40:02;14.10;;;12.10;;
57828;SDS011;43657;52.698;6.314;2022-10-17T07:42:35;17.50;;;11.98;;
57828;SDS011;43657;52.698;6.314;2022-10-17T07:45:06;12.13;;;10.73;;
57828;SDS011;43657;52.698;6.314;2022-10-17T07:47:56;13.60;;;10.38;;
57828;SDS011;43657;52.698;6.314;2022-10-17T07:50:25;13.57;;;11.02;;
57828;SDS011;43657;52.698;6.314;2022-10-17T07:53:06;12.85;;;10.70;;
57828;SDS011;43657;52.698;6.314;2022-10-17T07:55:38;12.95;;;10.73;;
57828;SDS011;43657;52.698;6.314;2022-10-17T08:00:33;12.05;;;10.30;;
57828;SDS011;43657;52.698;6.314;2022-10-17T08:03:00;10.57;;;9.57;;
57828;SDS011;43657;52.698;6.314;2022-10-17T08:05:25;10.85;;;9.55;;
57828;SDS011;43657;52.698;6.314;2022-10-17T08:07:51;11.05;;;9.63;;
57828;SDS011;43657;52.698;6.314;2022-10-17T08:10:17;12.73;;;9.23;;
57828;SDS011;43657;52.698;6.314;2022-10-17T08:12:42;12.45;;;9.52;;
57828;SDS011;43657;52.698;6.314;2022-10-17T08:15:08;10.40;;;9.20;;
57828;SDS011;43657;52.698;6.314;2022-10-17T08:17:35;10.15;;;9.07;;
57828;SDS011;43657;52.698;6.314;2022-10-17T08:20:05;12.10;;;9.18;;
57828;SDS011;43657;52.698;6.314;2022-10-17T08:22:31;11.50;;;9.38;;
57828;SDS011;43657;52.698;6.314;2022-10-17T08:24:57;10.75;;;8.18;;
57828;SDS011;43657;52.698;6.314;2022-10-17T08:27:23;10.10;;;8.68;;
57828;SDS011;43657;52.698;6.314;2022-10-17T08:29:50;11.55;;;8.85;;
57828;SDS011;43657;52.698;6.314;2022-10-17T08:32:19;9.27;;;8.32;;
57828;SDS011;43657;52.698;6.314;2022-10-17T08:34:45;10.25;;;8.27;;
57828;SDS011;43657;52.698;6.314;2022-10-17T08:37:11;10.82;;;9.07;;
57828;SDS011;43657;52.698;6.314;2022-10-17T08:39:38;9.50;;;8.50;;
57828;SDS011;43657;52.698;6.314;2022-10-17T08:47:08;9.07;;;8.13;;
57828;SDS011;43657;52.698;6.314;2022-10-17T08:49:41;10.65;;;8.18;;
57828;SDS011;43657;52.698;6.314;2022-10-17T08:57:55;10.07;;;8.38;;
57828;SDS011;43657;52.698;6.314;2022-10-17T09:00:20;12.52;;;8.18;;
57828;SDS011;43657;52.698;6.314;2022-10-17T09:05:36;9.18;;;8.20;;
57828;SDS011;43657;52.698;6.314;2022-10-17T09:08:16;9.13;;;8.23;;
57828;SDS011;43657;52.698;6.314;2022-10-17T09:10:59;10.05;;;9.02;;
57828;SDS011;43657;52.698;6.314;2022-10-17T09:19:07;10.35;;;8.98;;
57828;SDS011;43657;52.698;6.314;2022-10-17T09:24:16;11.52;;;9.45;;
57828;SDS011;43657;52.698;6.314;2022-10-17T09:27:01;13.07;;;9.38;;
57828;SDS011;43657;52.698;6.314;2022-10-17T09:29:28;14.30;;;10.70;;
57828;SDS011;43657;52.698;6.314;2022-10-17T09:31:56;14.27;;;10.63;;
57828;SDS011;43657;52.698;6.314;2022-10-17T09:34:25;13.90;;;11.40;;
57828;SDS011;43657;52.698;6.314;2022-10-17T09:36:53;16.70;;;12.07;;
57828;SDS011;43657;52.698;6.314;2022-10-17T09:39:21;16.35;;;11.13;;
57828;SDS011;43657;52.698;6.314;2022-10-17T09:41:51;18.40;;;11.15;;
57828;SDS011;43657;52.698;6.314;2022-10-17T09:49:27;16.67;;;11.82;;
57828;SDS011;43657;52.698;6.314;2022-10-17T09:52:02;18.40;;;12.55;;
57828;SDS011;43657;52.698;6.314;2022-10-17T09:54:41;22.20;;;12.50;;
57828;SDS011;43657;52.698;6.314;2022-10-17T09:57:13;28.67;;;14.10;;
57828;SDS011;43657;52.698;6.314;2022-10-17T09:59:41;31.42;;;13.48;;
57828;SDS011;43657;52.698;6.314;2022-10-17T10:04:53;27.27;;;13.75;;
57828;SDS011;43657;52.698;6.314;2022-10-17T10:07:21;17.90;;;12.63;;
57828;SDS011;43657;52.698;6.314;2022-10-17T10:09:48;24.05;;;12.93;;
57828;SDS011;43657;52.698;6.314;2022-10-17T10:12:37;28.55;;;13.95;;
57828;SDS011;43657;52.698;6.314;2022-10-17T10:15:26;20.33;;;14.40;;
57828;SDS011;43657;52.698;6.314;2022-10-17T10:17:58;25.08;;;14.05;;
57828;SDS011;43657;52.698;6.314;2022-10-17T10:20:27;23.25;;;13.00;;
57828;SDS011;43657;52.698;6.314;2022-10-17T10:23:03;45.83;;;15.45;;
57828;SDS011;43657;52.698;6.314;2022-10-17T10:25:30;40.47;;;15.32;;
57828;SDS011;43657;52.698;6.314;2022-10-17T10:27:56;34.53;;;14.27;;
57828;SDS011;43657;52.698;6.314;2022-10-17T10:30:24;24.33;;;13.90;;
57828;SDS011;43657;52.698;6.314;2022-10-17T10:32:53;36.10;;;15.05;;
57828;SDS011;43657;52.698;6.314;2022-10-17T10:35:32;33.83;;;15.13;;
57828;SDS011;43657;52.698;6.314;2022-10-17T10:38:00;24.17;;;15.02;;
57828;SDS011;43657;52.698;6.314;2022-10-17T10:40:34;40.03;;;16.27;;
57828;SDS011;43657;52.698;6.314;2022-10-17T10:43:04;30.92;;;15.10;;
57828;SDS011;43657;52.698;6.314;2022-10-17T10:48:03;27.17;;;14.82;;
57828;SDS011;43657;52.698;6.314;2022-10-17T10:50:48;31.73;;;15.77;;
57828;SDS011;43657;52.698;6.314;2022-10-17T10:53:26;28.33;;;14.55;;
57828;SDS011;43657;52.698;6.314;2022-10-17T10:56:17;71.93;;;18.63;;
57828;SDS011;43657;52.698;6.314;2022-10-17T11:06:35;28.15;;;15.25;;
57828;SDS011;43657;52.698;6.314;2022-10-17T11:09:24;52.63;;;16.80;;
57828;SDS011;43657;52.698;6.314;2022-10-17T11:11:57;30.10;;;16.50;;
57828;SDS011;43657;52.698;6.314;2022-10-17T11:22:29;33.20;;;15.25;;
57828;SDS011;43657;52.698;6.314;2022-10-17T11:25:03;23.33;;;14.02;;
57828;SDS011;43657;52.698;6.314;2022-10-17T11:27:33;45.10;;;16.23;;
57828;SDS011;43657;52.698;6.314;2022-10-17T11:29:59;44.28;;;16.13;;
57828;SDS011;43657;52.698;6.314;2022-10-17T11:32:30;44.78;;;16.42;;
57828;SDS011;43657;52.698;6.314;2022-10-17T11:40:30;29.10;;;15.10;;
57828;SDS011;43657;52.698;6.314;2022-10-17T11:43:00;22.83;;;14.05;;
57828;SDS011;43657;52.698;6.314;2022-10-17T11:45:35;21.70;;;14.48;;
57828;SDS011;43657;52.698;6.314;2022-10-17T11:48:11;19.08;;;14.38;;
57828;SDS011;43657;52.698;6.314;2022-10-17T11:50:47;39.45;;;16.13;;
57828;SDS011;43657;52.698;6.314;2022-10-17T11:53:23;26.02;;;14.55;;
57828;SDS011;43657;52.698;6.314;2022-10-17T11:55:52;24.23;;;15.40;;
57828;SDS011;43657;52.698;6.314;2022-10-17T11:58:32;18.73;;;13.27;;
57828;SDS011;43657;52.698;6.314;2022-10-17T12:03:32;25.02;;;13.27;;
57828;SDS011;43657;52.698;6.314;2022-10-17T12:09:23;18.42;;;12.70;;
57828;SDS011;43657;52.698;6.314;2022-10-17T12:12:00;19.55;;;13.15;;
57828;SDS011;43657;52.698;6.314;2022-10-17T12:23:03;13.82;;;11.43;;
57828;SDS011;43657;52.698;6.314;2022-10-17T12:25:54;19.58;;;11.85;;
57828;SDS011;43657;52.698;6.314;2022-10-17T12:30:54;12.73;;;10.23;;
57828;SDS011;43657;52.698;6.314;2022-10-17T12:33:29;22.70;;;11.98;;
57828;SDS011;43657;52.698;6.314;2022-10-17T12:38:45;12.50;;;9.82;;
57828;SDS011;43657;52.698;6.314;2022-10-17T12:41:16;16.95;;;10.27;;
57828;SDS011;43657;52.698;6.314;2022-10-17T12:44:01;13.80;;;10.35;;
57828;SDS011;43657;52.698;6.314;2022-10-17T12:46:51;15.25;;;10.30;;
57828;SDS011;43657;52.698;6.314;2022-10-17T13:00:16;13.43;;;9.85;;
57828;SDS011;43657;52.698;6.314;2022-10-17T13:02:55;11.82;;;9.77;;
57828;SDS011;43657;52.698;6.314;2022-10-17T13:05:28;21.42;;;11.20;;
57828;SDS011;43657;52.698;6.314;2022-10-17T13:07:56;22.52;;;10.27;;
57828;SDS011;43657;52.698;6.314;2022-10-17T13:10:25;10.05;;;3.97;;
57828;SDS011;43657;52.698;6.314;2022-10-17T13:12:53;7.80;;;3.45;;
57828;SDS011;43657;52.698;6.314;2022-10-17T13:15:29;7.20;;;3.40;;
57828;SDS011;43657;52.698;6.314;2022-10-17T13:17:57;7.07;;;2.83;;
57828;SDS011;43657;52.698;6.314;2022-10-17T13:20:24;6.30;;;2.85;;
57828;SDS011;43657;52.698;6.314;2022-10-17T13:22:53;7.60;;;2.90;;
57828;SDS011;43657;52.698;6.314;2022-10-17T13:25:21;9.80;;;3.28;;
57828;SDS011;43657;52.698;6.314;2022-10-17T13:27:47;11.20;;;3.63;;
57828;SDS011;43657;52.698;6.314;2022-10-17T13:32:45;6.10;;;2.80;;
57828;SDS011;43657;52.698;6.314;2022-10-17T13:35:12;7.05;;;3.50;;
57828;SDS011;43657;52.698;6.314;2022-10-17T13:37:41;7.65;;;3.08;;
57828;SDS011;43657;52.698;6.314;2022-10-17T13:40:16;10.57;;;3.15;;
57828;SDS011;43657;52.698;6.314;2022-10-17T13:42:43;7.30;;;3.17;;
57828;SDS011;43657;52.698;6.314;2022-10-17T13:45:12;6.00;;;3.28;;
57828;SDS011;43657;52.698;6.314;2022-10-17T13:47:49;12.18;;;4.05;;
57828;SDS011;43657;52.698;6.314;2022-10-17T13:50:19;8.68;;;3.50;;
57828;SDS011;43657;52.698;6.314;2022-10-17T13:53:04;12.38;;;3.22;;
57828;SDS011;43657;52.698;6.314;2022-10-17T13:55:30;9.57;;;3.80;;
57828;SDS011;43657;52.698;6.314;2022-10-17T13:58:07;9.07;;;3.40;;
57828;SDS011;43657;52.698;6.314;2022-10-17T14:00:51;15.32;;;3.80;;
57828;SDS011;43657;52.698;6.314;2022-10-17T14:03:45;10.93;;;3.47;;
57828;SDS011;43657;52.698;6.314;2022-10-17T14:06:25;15.05;;;4.88;;
57828;SDS011;43657;52.698;6.314;2022-10-17T14:09:06;10.88;;;4.20;;
57828;SDS011;43657;52.698;6.314;2022-10-17T14:12:06;11.10;;;4.25;;
57828;SDS011;43657;52.698;6.314;2022-10-17T14:15:03;7.88;;;3.72;;
57828;SDS011;43657;52.698;6.314;2022-10-17T14:18:13;16.27;;;8.13;;
57828;SDS011;43657;52.698;6.314;2022-10-17T14:21:33;15.00;;;6.72;;
57828;SDS011;43657;52.698;6.314;2022-10-17T14:27:26;11.50;;;3.85;;
57828;SDS011;43657;52.698;6.314;2022-10-17T14:36:28;13.05;;;3.50;;
57828;SDS011;43657;52.698;6.314;2022-10-17T14:42:50;8.63;;;3.88;;
57828;SDS011;43657;52.698;6.314;2022-10-17T14:45:40;6.78;;;3.83;;
57828;SDS011;43657;52.698;6.314;2022-10-17T14:49:06;6.57;;;3.17;;
57828;SDS011;43657;52.698;6.314;2022-10-17T14:55:12;7.43;;;3.53;;
57828;SDS011;43657;52.698;6.314;2022-10-17T15:01:25;8.95;;;3.53;;
57828;SDS011;43657;52.698;6.314;2022-10-17T15:04:00;6.53;;;3.22;;
57828;SDS011;43657;52.698;6.314;2022-10-17T15:07:26;6.68;;;4.18;;
57828;SDS011;43657;52.698;6.314;2022-10-17T15:14:00;6.40;;;4.13;;
57828;SDS011;43657;52.698;6.314;2022-10-17T15:17:04;14.50;;;5.97;;
57828;SDS011;43657;52.698;6.314;2022-10-17T15:20:25;6.97;;;4.45;;
57828;SDS011;43657;52.698;6.314;2022-10-17T15:26:31;10.05;;;4.85;;
57828;SDS011;43657;52.698;6.314;2022-10-17T15:33:07;8.70;;;5.32;;
57828;SDS011;43657;52.698;6.314;2022-10-17T15:35:49;9.15;;;6.15;;
57828;SDS011;43657;52.698;6.314;2022-10-17T15:38:42;8.40;;;6.30;;
57828;SDS011;43657;52.698;6.314;2022-10-17T15:45:02;8.55;;;6.25;;
57828;SDS011;43657;52.698;6.314;2022-10-17T15:47:55;8.25;;;6.28;;
57828;SDS011;43657;52.698;6.314;2022-10-17T15:50:39;12.63;;;6.72;;
57828;SDS011;43657;52.698;6.314;2022-10-17T15:53:20;13.13;;;7.50;;
57828;SDS011;43657;52.698;6.314;2022-10-17T15:59:30;23.13;;;8.45;;
57828;SDS011;43657;52.698;6.314;2022-10-17T16:02:18;16.20;;;8.10;;
57828;SDS011;43657;52.698;6.314;2022-10-17T16:05:15;9.32;;;7.03;;
57828;SDS011;43657;52.698;6.314;2022-10-17T16:08:05;13.80;;;7.90;;
57828;SDS011;43657;52.698;6.314;2022-10-17T16:11:05;10.25;;;7.47;;
57828;SDS011;43657;52.698;6.314;2022-10-17T16:14:36;17.23;;;8.10;;
57828;SDS011;43657;52.698;6.314;2022-10-17T16:17:57;14.73;;;7.57;;
57828;SDS011;43657;52.698;6.314;2022-10-17T16:21:10;19.92;;;7.70;;
57828;SDS011;43657;52.698;6.314;2022-10-17T16:23:46;23.85;;;8.98;;
57828;SDS011;43657;52.698;6.314;2022-10-17T16:30:18;15.25;;;8.15;;
57828;SDS011;43657;52.698;6.314;2022-10-17T16:37:05;12.05;;;8.00;;
57828;SDS011;43657;52.698;6.314;2022-10-17T16:39:48;18.95;;;8.82;;
57828;SDS011;43657;52.698;6.314;2022-10-17T16:45:52;18.80;;;9.52;;
57828;SDS011;43657;52.698;6.314;2022-10-17T16:48:29;23.33;;;10.30;;
57828;SDS011;43657;52.698;6.314;2022-10-17T16:54:55;26.23;;;12.82;;
57828;SDS011;43657;52.698;6.314;2022-10-17T16:57:41;23.58;;;13.07;;
57828;SDS011;43657;52.698;6.314;2022-10-17T17:00:20;34.55;;;15.07;;
57828;SDS011;43657;52.698;6.314;2022-10-17T17:02:54;32.15;;;14.30;;
57828;SDS011;43657;52.698;6.314;2022-10-17T17:05:38;25.45;;;13.45;;
57828;SDS011;43657;52.698;6.314;2022-10-17T17:08:13;21.00;;;14.20;;
57828;SDS011;43657;52.698;6.314;2022-10-17T17:10:51;28.77;;;14.43;;
57828;SDS011;43657;52.698;6.314;2022-10-17T17:13:30;24.55;;;14.32;;
57828;SDS011;43657;52.698;6.314;2022-10-17T17:16:09;25.30;;;15.18;;
57828;SDS011;43657;52.698;6.314;2022-10-17T17:18:45;39.58;;;17.88;;
57828;SDS011;43657;52.698;6.314;2022-10-17T17:21:16;40.15;;;17.17;;
57828;SDS011;43657;52.698;6.314;2022-10-17T17:23:42;53.08;;;19.70;;
57828;SDS011;43657;52.698;6.314;2022-10-17T17:26:12;27.55;;;17.75;;
57828;SDS011;43657;52.698;6.314;2022-10-17T17:28:48;33.20;;;19.02;;
57828;SDS011;43657;52.698;6.314;2022-10-17T17:31:24;39.67;;;20.88;;
57828;SDS011;43657;52.698;6.314;2022-10-17T17:33:56;32.35;;;19.70;;
57828;SDS011;43657;52.698;6.314;2022-10-17T17:36:28;53.92;;;22.63;;
57828;SDS011;43657;52.698;6.314;2022-10-17T17:38:57;32.17;;;20.80;;
57828;SDS011;43657;52.698;6.314;2022-10-17T17:41:33;48.83;;;22.55;;
57828;SDS011;43657;52.698;6.314;2022-10-17T17:44:18;54.63;;;21.30;;
57828;SDS011;43657;52.698;6.314;2022-10-17T17:46:46;43.47;;;21.15;;
57828;SDS011;43657;52.698;6.314;2022-10-17T17:49:15;45.40;;;21.17;;
57828;SDS011;43657;52.698;6.314;2022-10-17T17:51:44;76.43;;;24.60;;
57828;SDS011;43657;52.698;6.314;2022-10-17T17:54:18;33.17;;;21.08;;
57828;SDS011;43657;52.698;6.314;2022-10-17T17:56:53;50.00;;;22.60;;
57828;SDS011;43657;52.698;6.314;2022-10-17T18:00:12;57.28;;;24.55;;
57828;SDS011;43657;52.698;6.314;2022-10-17T18:03:09;40.58;;;21.77;;
57828;SDS011;43657;52.698;6.314;2022-10-17T18:05:38;69.43;;;25.65;;
57828;SDS011;43657;52.698;6.314;2022-10-17T18:08:07;43.00;;;22.20;;
57828;SDS011;43657;52.698;6.314;2022-10-17T18:10:36;44.88;;;21.85;;